Time;durP1;ratioP1;P1;durP2;ratioP2;P2;SDS_P1;SDS_P2;PMS_P1;PMS_P2;Temp;Humidity;BMP_temperature;BMP_pressure;BME280_temperature;BME280_humidity;BME280_pressure;Samples;Min_cycle;Max_cycle;Signal;HPM_P1;HPM_P2
2022/03/04 00:01:11;;;;;;;37.67;17.02;;;;;;;;;;5017381;28;89301;-69
2022/03/04 00:03:38;;;;;;;30.45;17.00;;;;;;;;;;4996010;28;90271;-69
2022/03/04 00:06:05;;;;;;;28.42;16.63;;;;;;;;;;4993950;28;89191;-70
2022/03/04 00:08:32;;;;;;;29.38;16.80;;;;;;;;;;4994950;28;88995;-70
2022/03/04 00:10:59;;;;;;;30.27;17.13;;;;;;;;;;4993772;28;89927;-69
2022/03/04 00:13:31;;;;;;;30.40;16.80;;;;;;;;;;4994525;28;89884;-69
2022/03/04 00:15:58;;;;;;;32.17;16.70;;;;;;;;;;5003012;28;89087;-69
2022/03/04 00:18:24;;;;;;;27.67;16.10;;;;;;;;;;4994932;28;91136;-69
2022/03/04 00:20:51;;;;;;;25.55;16.42;;;;;;;;;;4993922;28;89203;-69
2022/03/04 00:23:18;;;;;;;28.08;15.90;;;;;;;;;;4997856;28;88840;-69
2022/03/04 00:25:45;;;;;;;27.92;16.67;;;;;;;;;;4994100;28;89573;-69
2022/03/04 00:28:11;;;;;;;25.05;15.63;;;;;;;;;;4994371;28;89857;-70
2022/03/04 00:30:37;;;;;;;25.77;15.55;;;;;;;;;;4994064;28;90487;-70
2022/03/04 00:33:04;;;;;;;27.33;16.60;;;;;;;;;;4993942;28;93464;-70
2022/03/04 00:35:30;;;;;;;28.00;16.45;;;;;;;;;;4993996;28;88910;-69
2022/03/04 00:37:56;;;;;;;34.03;18.10;;;;;;;;;;4994207;28;90889;-70
2022/03/04 00:40:23;;;;;;;30.08;17.40;;;;;;;;;;4994317;28;88946;-70
2022/03/04 00:42:49;;;;;;;29.85;16.75;;;;;;;;;;4994104;28;89237;-70
2022/03/04 00:45:15;;;;;;;27.75;16.13;;;;;;;;;;4997342;28;90209;-70
2022/03/04 00:47:42;;;;;;;31.92;17.60;;;;;;;;;;4994407;28;88942;-72
2022/03/04 00:50:08;;;;;;;35.58;17.02;;;;;;;;;;4994059;28;91085;-70
2022/03/04 00:52:34;;;;;;;28.58;16.67;;;;;;;;;;4974569;28;90601;-70
2022/03/04 00:55:01;;;;;;;29.77;17.48;;;;;;;;;;4973640;28;89026;-71
2022/03/04 00:57:27;;;;;;;34.60;17.60;;;;;;;;;;4977526;28;90339;-70
2022/03/04 00:59:54;;;;;;;30.20;16.77;;;;;;;;;;5010111;28;89586;-70
2022/03/04 01:02:20;;;;;;;28.92;17.35;;;;;;;;;;5008899;28;90787;-70
2022/03/04 01:04:47;;;;;;;28.90;17.02;;;;;;;;;;4992554;28;89114;-70
2022/03/04 01:07:13;;;;;;;30.65;18.45;;;;;;;;;;5003525;28;90740;-70
2022/03/04 01:09:40;;;;;;;43.70;19.02;;;;;;;;;;4994311;28;90252;-70
2022/03/04 01:12:06;;;;;;;27.50;16.98;;;;;;;;;;5006680;28;89441;-70
2022/03/04 01:14:32;;;;;;;32.17;17.75;;;;;;;;;;5016081;28;89153;-70
2022/03/04 01:16:59;;;;;;;31.27;17.35;;;;;;;;;;4996899;28;90116;-69
2022/03/04 01:19:25;;;;;;;31.95;17.63;;;;;;;;;;4996700;28;89325;-70
2022/03/04 01:21:51;;;;;;;31.95;17.55;;;;;;;;;;4996840;28;88901;-69
2022/03/04 01:24:18;;;;;;;33.63;16.85;;;;;;;;;;4997248;28;91158;-70
2022/03/04 01:26:44;;;;;;;30.30;16.45;;;;;;;;;;5001174;28;90264;-71
2022/03/04 01:29:10;;;;;;;32.33;17.15;;;;;;;;;;5016974;28;89814;-71
2022/03/04 01:31:37;;;;;;;30.83;17.30;;;;;;;;;;5016936;28;89496;-69
2022/03/04 01:34:03;;;;;;;33.90;17.45;;;;;;;;;;5016146;28;89006;-70
2022/03/04 01:36:33;;;;;;;30.58;17.13;;;;;;;;;;5017221;28;90283;-70
2022/03/04 01:39:00;;;;;;;28.98;16.50;;;;;;;;;;5015945;28;89738;-70
2022/03/04 01:41:26;;;;;;;30.02;17.48;;;;;;;;;;5015658;28;88980;-70
2022/03/04 01:43:52;;;;;;;32.20;16.38;;;;;;;;;;5016576;28;90213;-70
2022/03/04 01:46:26;;;;;;;28.95;16.50;;;;;;;;;;5005154;28;89704;-69
2022/03/04 01:48:53;;;;;;;29.10;17.17;;;;;;;;;;4999234;28;90006;-71
2022/03/04 01:51:19;;;;;;;32.35;17.52;;;;;;;;;;4996410;28;89347;-70
2022/03/04 01:53:46;;;;;;;29.27;16.33;;;;;;;;;;4996908;28;89813;-70
2022/03/04 01:56:13;;;;;;;30.92;16.42;;;;;;;;;;4996681;28;91056;-70
2022/03/04 01:58:40;;;;;;;32.08;16.95;;;;;;;;;;4996509;28;89508;-70
2022/03/04 02:01:06;;;;;;;26.52;16.65;;;;;;;;;;4997023;28;89103;-70
2022/03/04 02:03:33;;;;;;;32.70;17.13;;;;;;;;;;4999500;28;90400;-70
2022/03/04 02:05:59;;;;;;;32.40;18.67;;;;;;;;;;5015902;28;89587;-70
2022/03/04 02:08:26;;;;;;;34.17;18.13;;;;;;;;;;5016416;28;89816;-70
2022/03/04 02:10:52;;;;;;;34.00;17.23;;;;;;;;;;4997876;28;90131;-69
2022/03/04 02:13:19;;;;;;;34.53;17.38;;;;;;;;;;4995767;28;89015;-70
2022/03/04 02:15:45;;;;;;;33.75;17.17;;;;;;;;;;5008987;28;90382;-70
2022/03/04 02:18:12;;;;;;;28.35;16.70;;;;;;;;;;5000072;28;89620;-70
2022/03/04 02:20:42;;;;;;;35.42;17.45;;;;;;;;;;5003399;28;89179;-69
2022/03/04 02:23:09;;;;;;;32.50;17.02;;;;;;;;;;5005604;28;90277;-70
2022/03/04 02:25:35;;;;;;;32.30;16.98;;;;;;;;;;4995093;28;89618;-69
2022/03/04 02:28:01;;;;;;;32.90;17.60;;;;;;;;;;5008177;28;89101;-70
2022/03/04 02:30:28;;;;;;;32.08;16.88;;;;;;;;;;4996375;28;91753;-70
2022/03/04 02:32:54;;;;;;;31.35;17.58;;;;;;;;;;5004375;28;89314;-70
2022/03/04 02:35:20;;;;;;;32.30;18.15;;;;;;;;;;5016364;28;92802;-70
2022/03/04 02:37:47;;;;;;;34.83;17.40;;;;;;;;;;5015812;28;89027;-69
2022/03/04 02:40:14;;;;;;;31.05;17.13;;;;;;;;;;5016529;28;89932;-70
2022/03/04 02:42:40;;;;;;;29.02;16.77;;;;;;;;;;5015849;28;91173;-71
2022/03/04 02:45:06;;;;;;;31.40;18.35;;;;;;;;;;5009197;28;89446;-70
2022/03/04 02:47:33;;;;;;;32.28;17.70;;;;;;;;;;4995395;28;89230;-70
2022/03/04 02:49:59;;;;;;;32.42;17.55;;;;;;;;;;4995699;28;89938;-69
2022/03/04 02:52:25;;;;;;;30.17;17.40;;;;;;;;;;4995667;28;89607;-69
2022/03/04 02:54:51;;;;;;;41.10;17.15;;;;;;;;;;4998891;28;89094;-70
2022/03/04 02:57:18;;;;;;;34.85;17.85;;;;;;;;;;4995303;28;89575;-70
2022/03/04 02:59:44;;;;;;;35.00;17.58;;;;;;;;;;4994427;28;88966;-70
2022/03/04 03:02:10;;;;;;;38.03;17.88;;;;;;;;;;4994886;28;90223;-70
2022/03/04 03:04:37;;;;;;;33.20;17.35;;;;;;;;;;4995407;28;89575;-69
2022/03/04 03:07:03;;;;;;;36.50;18.45;;;;;;;;;;4995383;28;90223;-70
2022/03/04 03:09:29;;;;;;;35.38;17.98;;;;;;;;;;4995730;28;88874;-70
2022/03/04 03:11:56;;;;;;;34.67;16.80;;;;;;;;;;4994894;28;89659;-70
2022/03/04 03:14:22;;;;;;;32.75;17.60;;;;;;;;;;4996137;28;89219;-70
2022/03/04 03:16:48;;;;;;;33.00;18.08;;;;;;;;;;4997775;28;89986;-70
2022/03/04 03:19:15;;;;;;;33.33;17.48;;;;;;;;;;4995286;28;88923;-70
2022/03/04 03:21:41;;;;;;;34.25;16.85;;;;;;;;;;5001039;28;90938;-70
2022/03/04 03:24:07;;;;;;;30.95;17.50;;;;;;;;;;5015224;28;89596;-70
2022/03/04 03:26:34;;;;;;;36.72;18.70;;;;;;;;;;5015539;28;88926;-70
2022/03/04 03:29:00;;;;;;;33.08;17.92;;;;;;;;;;5014054;28;90145;-70
2022/03/04 03:31:26;;;;;;;31.35;18.08;;;;;;;;;;5001072;28;89577;-71
2022/03/04 03:33:52;;;;;;;35.08;18.35;;;;;;;;;;5011195;28;89376;-70
2022/03/04 03:36:20;;;;;;;36.15;17.05;;;;;;;;;;5016429;28;89034;-70
2022/03/04 03:38:46;;;;;;;30.80;16.45;;;;;;;;;;5015129;28;88933;-70
2022/03/04 03:41:13;;;;;;;31.17;16.85;;;;;;;;;;5010444;28;89022;-71
2022/03/04 03:43:40;;;;;;;31.35;17.25;;;;;;;;;;5013855;28;89327;-70
2022/03/04 03:46:06;;;;;;;33.38;17.30;;;;;;;;;;5004940;28;89635;-70
2022/03/04 03:48:32;;;;;;;30.25;17.65;;;;;;;;;;5014054;28;91133;-70
2022/03/04 03:51:00;;;;;;;30.33;17.00;;;;;;;;;;5004976;28;89758;-70
2022/03/04 03:53:26;;;;;;;28.83;15.70;;;;;;;;;;4995227;28;90074;-70
2022/03/04 03:55:52;;;;;;;33.50;16.98;;;;;;;;;;4994839;28;90111;-70
2022/03/04 03:58:18;;;;;;;31.50;16.42;;;;;;;;;;5017651;28;90382;-70
2022/03/04 04:00:45;;;;;;;32.78;17.05;;;;;;;;;;5011203;28;89872;-69
2022/03/04 04:03:11;;;;;;;31.02;16.65;;;;;;;;;;4994193;28;89563;-71
2022/03/04 04:05:37;;;;;;;30.08;16.02;;;;;;;;;;4995811;28;88994;-70
2022/03/04 04:08:04;;;;;;;32.10;17.88;;;;;;;;;;5012245;28;89915;-70
2022/03/04 04:10:30;;;;;;;30.85;16.15;;;;;;;;;;5006666;28;89461;-70
2022/03/04 04:12:56;;;;;;;34.58;16.65;;;;;;;;;;4980245;28;89499;-71
2022/03/04 04:15:23;;;;;;;30.77;16.40;;;;;;;;;;4979344;28;91471;-70
2022/03/04 04:17:49;;;;;;;31.80;17.40;;;;;;;;;;4994517;28;89376;-71
2022/03/04 04:20:15;;;;;;;34.42;17.27;;;;;;;;;;4982624;28;90405;-70
2022/03/04 04:22:42;;;;;;;34.72;17.73;;;;;;;;;;5014173;28;89234;-70
2022/03/04 04:25:08;;;;;;;37.35;17.88;;;;;;;;;;5012000;28;89148;-70
2022/03/04 04:27:35;;;;;;;36.38;17.98;;;;;;;;;;4994132;28;91302;-70
2022/03/04 04:30:01;;;;;;;36.17;16.75;;;;;;;;;;4994207;28;90408;-70
2022/03/04 04:32:27;;;;;;;33.10;17.75;;;;;;;;;;4995844;28;88954;-70
2022/03/04 04:34:53;;;;;;;29.65;15.98;;;;;;;;;;4993858;28;89799;-71
2022/03/04 04:37:20;;;;;;;29.90;16.20;;;;;;;;;;4994472;28;89256;-70
2022/03/04 04:39:46;;;;;;;33.80;16.20;;;;;;;;;;4994277;28;89827;-70
2022/03/04 04:42:13;;;;;;;28.77;16.02;;;;;;;;;;5000389;28;90872;-71
2022/03/04 04:44:39;;;;;;;33.20;17.77;;;;;;;;;;4998059;28;88959;-70
2022/03/04 04:47:06;;;;;;;37.60;17.33;;;;;;;;;;5004706;28;90102;-71
2022/03/04 04:49:36;;;;;;;32.78;17.70;;;;;;;;;;4976436;28;89699;-70
2022/03/04 04:52:03;;;;;;;38.17;15.85;;;;;;;;;;4992929;28;89111;-70
2022/03/04 04:54:30;;;;;;;29.27;16.48;;;;;;;;;;5012530;28;89845;-70
2022/03/04 04:56:56;;;;;;;32.72;17.75;;;;;;;;;;5008293;28;90603;-70
2022/03/04 04:59:22;;;;;;;36.53;17.88;;;;;;;;;;5007714;28;89567;-70
2022/03/04 05:01:48;;;;;;;31.70;17.17;;;;;;;;;;5007614;28;90053;-70
2022/03/04 05:04:15;;;;;;;33.58;18.63;;;;;;;;;;5004194;28;89492;-70
2022/03/04 05:06:41;;;;;;;36.30;17.50;;;;;;;;;;5009210;28;89931;-70
2022/03/04 05:09:07;;;;;;;35.67;17.98;;;;;;;;;;5005069;28;89297;-70
2022/03/04 05:11:34;;;;;;;31.17;17.45;;;;;;;;;;5016779;28;88814;-70
2022/03/04 05:14:00;;;;;;;30.77;17.13;;;;;;;;;;5014425;28;90094;-70
2022/03/04 05:16:26;;;;;;;30.35;17.25;;;;;;;;;;4997662;28;89977;-70
2022/03/04 05:18:53;;;;;;;31.88;17.73;;;;;;;;;;4996941;28;89012;-71
2022/03/04 05:21:19;;;;;;;27.98;15.65;;;;;;;;;;4997455;28;89587;-70
2022/03/04 05:24:00;;;;;;;35.13;17.65;;;;;;;;;;4996520;28;90264;-71
2022/03/04 05:26:27;;;;;;;33.63;18.13;;;;;;;;;;5004390;28;88923;-70
2022/03/04 05:28:54;;;;;;;38.75;18.52;;;;;;;;;;5016813;28;89313;-71
2022/03/04 05:31:20;;;;;;;34.70;18.23;;;;;;;;;;5017507;28;89292;-70
2022/03/04 05:33:47;;;;;;;38.72;18.60;;;;;;;;;;5016858;28;90101;-70
2022/03/04 05:36:14;;;;;;;33.28;18.23;;;;;;;;;;5017212;28;89424;-71
2022/03/04 05:38:40;;;;;;;33.70;17.05;;;;;;;;;;5016600;28;89263;-70
2022/03/04 05:41:06;;;;;;;43.70;17.48;;;;;;;;;;5016718;28;90324;-70
2022/03/04 05:43:33;;;;;;;36.60;17.70;;;;;;;;;;5017101;28;89514;-70
2022/03/04 05:45:59;;;;;;;35.08;17.65;;;;;;;;;;5010577;28;89174;-70
2022/03/04 05:48:26;;;;;;;35.67;18.77;;;;;;;;;;4996588;28;89978;-70
2022/03/04 05:50:52;;;;;;;38.28;18.65;;;;;;;;;;4996667;28;89214;-70
2022/03/04 05:53:18;;;;;;;35.67;17.48;;;;;;;;;;4996316;28;89862;-70
2022/03/04 05:55:45;;;;;;;33.08;17.65;;;;;;;;;;4996565;28;90390;-70
2022/03/04 05:58:11;;;;;;;35.50;18.42;;;;;;;;;;4996856;28;90044;-70
2022/03/04 06:00:37;;;;;;;37.30;17.63;;;;;;;;;;4996687;28;90017;-70
2022/03/04 06:03:05;;;;;;;31.77;17.35;;;;;;;;;;4994680;28;90532;-70
2022/03/04 06:05:31;;;;;;;45.90;18.48;;;;;;;;;;4996671;28;89040;-70
2022/03/04 06:07:58;;;;;;;34.45;17.98;;;;;;;;;;4999612;28;89626;-70
2022/03/04 06:10:24;;;;;;;35.55;18.38;;;;;;;;;;5008450;28;88997;-70
2022/03/04 06:12:50;;;;;;;40.17;18.02;;;;;;;;;;4993240;28;89790;-70
2022/03/04 06:15:16;;;;;;;34.20;18.40;;;;;;;;;;4983772;28;89438;-70
2022/03/04 06:17:46;;;;;;;29.67;16.50;;;;;;;;;;5002531;28;88992;-70
2022/03/04 06:20:13;;;;;;;34.63;18.47;;;;;;;;;;4995714;28;90005;-70
2022/03/04 06:22:39;;;;;;;35.45;16.98;;;;;;;;;;5006646;28;89394;-70
2022/03/04 06:25:05;;;;;;;34.50;18.10;;;;;;;;;;4995421;28;89754;-71
2022/03/04 06:27:32;;;;;;;34.38;18.25;;;;;;;;;;5006947;28;89713;-70
2022/03/04 06:29:58;;;;;;;35.42;17.45;;;;;;;;;;5006130;28;89492;-70
2022/03/04 06:32:24;;;;;;;32.88;17.33;;;;;;;;;;5007020;28;90203;-70
2022/03/04 06:34:50;;;;;;;36.58;17.40;;;;;;;;;;4998564;28;89784;-71
2022/03/04 06:37:17;;;;;;;49.40;17.25;;;;;;;;;;5007095;28;89370;-71
2022/03/04 06:39:43;;;;;;;31.80;16.65;;;;;;;;;;5007621;28;91180;-70
2022/03/04 06:42:10;;;;;;;32.97;17.23;;;;;;;;;;4998628;28;89412;-71
2022/03/04 06:44:36;;;;;;;39.38;16.70;;;;;;;;;;4996283;28;89096;-69
2022/03/04 06:47:03;;;;;;;33.65;17.65;;;;;;;;;;4996071;28;90927;-69
2022/03/04 06:49:29;;;;;;;33.17;16.60;;;;;;;;;;5010472;28;89588;-69
2022/03/04 06:51:55;;;;;;;32.30;16.92;;;;;;;;;;5007683;28;88868;-69
2022/03/04 06:54:21;;;;;;;32.92;16.98;;;;;;;;;;4998526;28;89818;-69
2022/03/04 06:56:48;;;;;;;42.50;18.38;;;;;;;;;;5001560;28;89030;-70
2022/03/04 06:59:14;;;;;;;38.05;16.33;;;;;;;;;;5013612;28;90102;-69
2022/03/04 07:01:40;;;;;;;36.38;17.60;;;;;;;;;;5011950;28;89342;-71
2022/03/04 07:04:07;;;;;;;37.05;17.75;;;;;;;;;;4992927;28;89081;-70
2022/03/04 07:06:33;;;;;;;29.45;17.33;;;;;;;;;;4993165;28;89898;-70
2022/03/04 07:08:59;;;;;;;33.25;16.83;;;;;;;;;;4995294;28;89474;-69
2022/03/04 07:11:27;;;;;;;34.50;18.65;;;;;;;;;;4996615;28;89022;-70
2022/03/04 07:13:53;;;;;;;43.53;16.92;;;;;;;;;;4990131;28;89704;-71
2022/03/04 07:16:20;;;;;;;37.88;18.02;;;;;;;;;;4997409;28;89696;-72
2022/03/04 07:18:46;;;;;;;39.38;17.35;;;;;;;;;;4995594;28;90047;-70
2022/03/04 07:21:13;;;;;;;41.42;17.88;;;;;;;;;;4995951;28;89590;-69
2022/03/04 07:23:39;;;;;;;38.40;17.88;;;;;;;;;;4995513;28;89136;-70
2022/03/04 07:26:09;;;;;;;31.30;16.95;;;;;;;;;;5000231;28;90061;-70
2022/03/04 07:28:35;;;;;;;36.10;18.20;;;;;;;;;;5002648;28;89325;-69
2022/03/04 07:31:02;;;;;;;30.50;16.83;;;;;;;;;;4994497;28;90049;-68
2022/03/04 07:33:28;;;;;;;33.20;17.85;;;;;;;;;;4995371;28;90161;-69
2022/03/04 07:35:55;;;;;;;34.38;17.98;;;;;;;;;;5016906;28;90019;-69
2022/03/04 07:38:21;;;;;;;38.60;18.13;;;;;;;;;;5013743;28;90943;-69
2022/03/04 07:40:47;;;;;;;36.00;17.70;;;;;;;;;;5006173;28;89617;-69
2022/03/04 07:43:13;;;;;;;33.60;17.50;;;;;;;;;;4995385;28;89439;-70
2022/03/04 07:45:40;;;;;;;31.48;18.52;;;;;;;;;;5001801;28;91157;-69
2022/03/04 07:48:06;;;;;;;44.38;17.77;;;;;;;;;;4995152;28;88963;-69
2022/03/04 07:50:32;;;;;;;29.52;17.30;;;;;;;;;;4994056;28;89522;-70
2022/03/04 07:52:58;;;;;;;29.75;16.58;;;;;;;;;;4995629;28;89945;-69
2022/03/04 07:55:26;;;;;;;50.83;17.60;;;;;;;;;;4999030;28;89596;-69
2022/03/04 07:57:54;;;;;;;31.50;17.10;;;;;;;;;;4990945;28;91287;-70
2022/03/04 08:00:24;;;;;;;30.70;16.73;;;;;;;;;;4974557;28;89643;-69
2022/03/04 08:02:52;;;;;;;41.80;17.83;;;;;;;;;;4993081;28;89149;-69
2022/03/04 08:05:19;;;;;;;32.30;17.33;;;;;;;;;;5012875;28;91090;-68
2022/03/04 08:07:45;;;;;;;28.58;16.50;;;;;;;;;;5008221;28;90734;-69
2022/03/04 08:10:11;;;;;;;33.88;17.10;;;;;;;;;;4994860;28;90005;-68
2022/03/04 08:12:38;;;;;;;33.70;17.77;;;;;;;;;;4994835;28;90448;-69
2022/03/04 08:15:05;;;;;;;33.03;17.30;;;;;;;;;;4994717;28;89558;-69
2022/03/04 08:17:31;;;;;;;31.80;17.10;;;;;;;;;;4998596;28;89000;-69
2022/03/04 08:19:58;;;;;;;33.72;17.92;;;;;;;;;;4994510;28;89583;-69
2022/03/04 08:22:24;;;;;;;36.67;17.10;;;;;;;;;;4994557;28;90008;-69
2022/03/04 08:24:52;;;;;;;35.08;18.40;;;;;;;;;;4996710;28;90088;-71
2022/03/04 08:27:19;;;;;;;31.35;17.52;;;;;;;;;;5004033;28;89459;-70
2022/03/04 08:29:45;;;;;;;33.92;16.58;;;;;;;;;;4994709;28;89042;-69
2022/03/04 08:32:11;;;;;;;29.85;16.75;;;;;;;;;;4993913;28;89853;-69
2022/03/04 08:34:38;;;;;;;31.50;17.02;;;;;;;;;;5005469;28;89543;-70
2022/03/04 08:37:04;;;;;;;31.48;16.60;;;;;;;;;;4994448;28;89360;-69
2022/03/04 08:39:30;;;;;;;37.13;16.88;;;;;;;;;;4996446;28;90940;-68
2022/03/04 08:41:57;;;;;;;33.28;16.75;;;;;;;;;;4994409;28;89880;-69
2022/03/04 08:44:23;;;;;;;43.38;16.30;;;;;;;;;;5002111;28;90097;-68
2022/03/04 08:46:50;;;;;;;30.75;16.52;;;;;;;;;;4994627;28;90505;-68
2022/03/04 08:49:19;;;;;;;31.48;17.00;;;;;;;;;;4993665;28;90836;-68
2022/03/04 08:51:45;;;;;;;30.23;16.00;;;;;;;;;;4993980;28;89945;-68
2022/03/04 08:54:12;;;;;;;30.23;16.33;;;;;;;;;;5007899;28;90270;-69
2022/03/04 08:56:38;;;;;;;29.60;16.67;;;;;;;;;;5014967;28;88811;-69
2022/03/04 08:59:04;;;;;;;30.85;16.65;;;;;;;;;;5013731;28;89999;-67
2022/03/04 09:01:31;;;;;;;31.38;16.98;;;;;;;;;;5010811;28;92276;-68
2022/03/04 09:03:58;;;;;;;33.97;17.00;;;;;;;;;;4998400;28;90007;-68
2022/03/04 09:06:24;;;;;;;30.15;17.17;;;;;;;;;;4994589;28;90688;-67
2022/03/04 09:08:50;;;;;;;27.02;15.55;;;;;;;;;;4994024;28;89813;-68
2022/03/04 09:11:16;;;;;;;33.08;16.92;;;;;;;;;;5005294;28;91099;-68
2022/03/04 09:13:43;;;;;;;28.17;16.20;;;;;;;;;;5013502;28;89700;-68
2022/03/04 09:16:09;;;;;;;30.98;16.30;;;;;;;;;;5005453;28;88951;-68
2022/03/04 09:18:35;;;;;;;32.75;16.80;;;;;;;;;;4993844;28;90013;-68
2022/03/04 09:21:03;;;;;;;34.25;16.83;;;;;;;;;;4994635;28;89199;-68
2022/03/04 09:23:29;;;;;;;34.58;16.90;;;;;;;;;;4996237;28;89121;-68
2022/03/04 09:25:56;;;;;;;30.25;16.77;;;;;;;;;;4994131;28;88863;-68
2022/03/04 09:28:22;;;;;;;28.70;16.92;;;;;;;;;;4994592;28;89623;-68
2022/03/04 09:30:48;;;;;;;25.23;15.48;;;;;;;;;;4997221;28;90959;-68
2022/03/04 09:33:15;;;;;;;26.25;15.80;;;;;;;;;;4996534;28;89703;-68
2022/03/04 09:35:41;;;;;;;28.50;15.60;;;;;;;;;;4998746;28;89068;-69
2022/03/04 09:38:07;;;;;;;26.75;15.85;;;;;;;;;;5016216;28;91125;-68
2022/03/04 09:40:34;;;;;;;26.88;15.45;;;;;;;;;;5001496;28;90603;-68
2022/03/04 09:43:00;;;;;;;28.48;15.27;;;;;;;;;;4997381;28;89521;-68
2022/03/04 09:45:26;;;;;;;26.50;15.93;;;;;;;;;;5006885;28;89334;-68
2022/03/04 09:47:53;;;;;;;26.77;16.25;;;;;;;;;;4997718;28;89644;-71
2022/03/04 09:50:19;;;;;;;28.95;15.43;;;;;;;;;;4997344;28;91150;-68
2022/03/04 09:52:46;;;;;;;29.40;15.48;;;;;;;;;;4999254;28;90978;-70
2022/03/04 09:55:14;;;;;;;23.65;15.55;;;;;;;;;;5004600;28;89032;-69
2022/03/04 09:57:41;;;;;;;23.30;14.35;;;;;;;;;;5016343;28;89697;-70
2022/03/04 10:00:11;;;;;;;38.92;16.27;;;;;;;;;;4987292;28;89179;-69
2022/03/04 10:02:37;;;;;;;22.05;15.73;;;;;;;;;;4976413;28;89306;-68
2022/03/04 10:05:04;;;;;;;28.45;15.98;;;;;;;;;;5008460;28;90026;-69
2022/03/04 10:07:37;;;;;;;22.45;16.42;;;;;;;;;;5016970;28;89824;-70
2022/03/04 10:10:08;;;;;;;21.20;15.15;;;;;;;;;;5014641;28;90122;-71
2022/03/04 10:12:44;;;;;;;22.73;15.18;;;;;;;;;;5008324;28;89325;-69
2022/03/04 10:15:11;;;;;;;23.83;14.73;;;;;;;;;;5005285;28;88967;-70
2022/03/04 10:17:37;;;;;;;27.35;14.32;;;;;;;;;;4995508;28;89902;-70
2022/03/04 10:20:07;;;;;;;17.45;14.07;;;;;;;;;;4996013;28;89468;-66
2022/03/04 10:22:36;;;;;;;18.77;14.25;;;;;;;;;;5002690;28;89924;-68
2022/03/04 10:25:24;;;;;;;20.80;13.90;;;;;;;;;;5004420;28;90275;-66
2022/03/04 10:27:52;;;;;;;17.42;13.48;;;;;;;;;;5018527;28;89776;-67
2022/03/04 10:30:29;;;;;;;17.25;12.68;;;;;;;;;;5014783;28;90879;-67
2022/03/04 10:33:08;;;;;;;17.08;12.63;;;;;;;;;;4987522;28;90187;-67
2022/03/04 10:35:36;;;;;;;24.17;13.10;;;;;;;;;;5007536;28;89181;-67
2022/03/04 10:38:04;;;;;;;19.40;13.40;;;;;;;;;;5015556;28;89870;-67
2022/03/04 10:40:31;;;;;;;16.70;12.90;;;;;;;;;;5013012;28;89533;-67
2022/03/04 10:42:59;;;;;;;16.42;12.05;;;;;;;;;;4996041;28;90894;-67
2022/03/04 10:45:25;;;;;;;16.83;12.90;;;;;;;;;;5002727;28;89859;-67
2022/03/04 10:47:57;;;;;;;17.58;12.82;;;;;;;;;;4995935;28;89324;-68
2022/03/04 10:50:40;;;;;;;17.90;12.10;;;;;;;;;;4998983;28;89201;-68
2022/03/04 10:53:08;;;;;;;17.88;12.70;;;;;;;;;;4996632;28;89254;-68
2022/03/04 10:55:37;;;;;;;19.05;13.40;;;;;;;;;;4995855;28;89337;-68
2022/03/04 10:58:04;;;;;;;14.80;12.55;;;;;;;;;;4995126;28;90181;-69
2022/03/04 11:00:32;;;;;;;15.75;13.10;;;;;;;;;;5001277;28;89801;-68
2022/03/04 11:02:59;;;;;;;16.90;12.60;;;;;;;;;;5010387;28;90194;-68
2022/03/04 11:05:25;;;;;;;25.55;13.48;;;;;;;;;;5015860;28;91275;-69
2022/03/04 11:07:52;;;;;;;15.55;13.13;;;;;;;;;;4998150;28;90614;-68
2022/03/04 11:10:19;;;;;;;15.40;12.38;;;;;;;;;;4995347;28;89257;-68
2022/03/04 11:12:49;;;;;;;16.52;13.25;;;;;;;;;;4998182;28;90362;-67
2022/03/04 11:15:17;;;;;;;19.92;12.75;;;;;;;;;;4995288;28;89483;-69
2022/03/04 11:17:45;;;;;;;18.75;13.10;;;;;;;;;;5012275;28;90418;-69
2022/03/04 11:20:12;;;;;;;14.70;13.13;;;;;;;;;;4994815;28;89936;-68
2022/03/04 11:22:40;;;;;;;16.70;12.38;;;;;;;;;;4995489;28;91461;-68
2022/03/04 11:25:13;;;;;;;21.40;13.00;;;;;;;;;;4995197;28;90004;-69
2022/03/04 11:27:44;;;;;;;19.50;13.40;;;;;;;;;;4994985;28;89666;-69
2022/03/04 11:30:28;;;;;;;17.05;13.25;;;;;;;;;;4994370;28;89268;-67
2022/03/04 11:33:15;;;;;;;15.85;13.10;;;;;;;;;;4994601;28;90123;-66
2022/03/04 11:35:41;;;;;;;14.60;12.60;;;;;;;;;;4999125;28;90561;-69
2022/03/04 11:38:08;;;;;;;24.25;13.32;;;;;;;;;;4994586;28;90016;-68
2022/03/04 11:40:35;;;;;;;16.90;13.35;;;;;;;;;;4995098;28;89784;-67
2022/03/04 11:43:02;;;;;;;16.23;13.50;;;;;;;;;;4994059;28;90096;-67
2022/03/04 11:45:32;;;;;;;20.70;13.15;;;;;;;;;;5004037;28;90006;-67
2022/03/04 11:48:20;;;;;;;23.42;13.60;;;;;;;;;;5013343;28;89914;-68
2022/03/04 11:50:46;;;;;;;14.23;12.27;;;;;;;;;;4992607;28;89207;-67
2022/03/04 11:53:14;;;;;;;14.73;12.98;;;;;;;;;;4995901;28;91036;-68
2022/03/04 11:55:40;;;;;;;14.70;13.02;;;;;;;;;;5010806;28;89441;-69
2022/03/04 11:58:06;;;;;;;17.83;13.20;;;;;;;;;;4989507;28;89600;-68
2022/03/04 12:00:34;;;;;;;18.98;13.27;;;;;;;;;;4986674;28;89623;-68
2022/03/04 12:03:11;;;;;;;19.33;13.75;;;;;;;;;;4993748;28;89240;-67
2022/03/04 12:05:38;;;;;;;20.00;13.75;;;;;;;;;;4995082;28;89885;-70
2022/03/04 12:08:04;;;;;;;19.05;14.30;;;;;;;;;;4980559;28;89794;-67
2022/03/04 12:10:38;;;;;;;18.02;13.40;;;;;;;;;;4994638;28;89254;-67
2022/03/04 12:13:06;;;;;;;21.40;13.00;;;;;;;;;;4993965;28;89820;-69
2022/03/04 12:15:32;;;;;;;20.60;13.55;;;;;;;;;;4994317;28;89394;-69
2022/03/04 12:18:03;;;;;;;18.10;13.82;;;;;;;;;;5000168;28;89282;-70
2022/03/04 12:20:38;;;;;;;16.27;13.25;;;;;;;;;;5008040;28;90421;-68
2022/03/04 12:23:09;;;;;;;20.85;13.70;;;;;;;;;;5014616;28;90614;-69
2022/03/04 12:25:56;;;;;;;19.85;12.55;;;;;;;;;;4995324;28;89916;-67
2022/03/04 12:28:33;;;;;;;20.15;12.77;;;;;;;;;;4975332;28;90737;-68
2022/03/04 12:31:00;;;;;;;19.33;13.98;;;;;;;;;;4997607;28;89018;-67
2022/03/04 12:33:27;;;;;;;19.15;13.18;;;;;;;;;;4995913;28;90034;-67
2022/03/04 12:35:57;;;;;;;12.63;11.30;;;;;;;;;;5010206;28;89299;-68
2022/03/04 12:38:24;;;;;;;14.20;11.00;;;;;;;;;;4994821;28;89134;-67
2022/03/04 12:40:50;;;;;;;18.30;12.63;;;;;;;;;;4997179;28;89893;-67
2022/03/04 12:43:16;;;;;;;16.85;10.57;;;;;;;;;;5005462;28;90266;-69
2022/03/04 12:45:43;;;;;;;14.55;9.73;;;;;;;;;;4994894;28;91186;-68
2022/03/04 12:48:09;;;;;;;11.05;8.88;;;;;;;;;;4994885;28;88901;-68
2022/03/04 12:50:35;;;;;;;12.43;10.43;;;;;;;;;;4994820;28;88982;-67
2022/03/04 12:53:21;;;;;;;12.88;10.65;;;;;;;;;;4992817;28;89020;-68
2022/03/04 12:55:50;;;;;;;14.48;9.27;;;;;;;;;;4994756;28;89329;-68
2022/03/04 12:58:36;;;;;;;10.50;8.68;;;;;;;;;;4995224;28;88845;-68
2022/03/04 13:01:03;;;;;;;11.75;9.38;;;;;;;;;;4995128;28;88017;-68
2022/03/04 13:03:36;;;;;;;12.60;9.10;;;;;;;;;;4999255;28;88918;-67
2022/03/04 13:06:03;;;;;;;12.00;9.13;;;;;;;;;;5001388;28;88081;-67
2022/03/04 13:08:32;;;;;;;13.00;9.98;;;;;;;;;;5018303;28;87908;-68
2022/03/04 13:11:19;;;;;;;13.63;9.60;;;;;;;;;;5014273;28;89116;-68
2022/03/04 13:14:05;;;;;;;10.15;8.77;;;;;;;;;;5006196;28;91388;-68
2022/03/04 13:16:47;;;;;;;12.50;8.23;;;;;;;;;;4983960;28;89215;-67
2022/03/04 13:19:16;;;;;;;11.15;9.00;;;;;;;;;;4998314;28;89714;-69
2022/03/04 13:21:47;;;;;;;14.32;9.25;;;;;;;;;;4998147;28;89091;-69
2022/03/04 13:24:24;;;;;;;12.48;8.07;;;;;;;;;;4997876;28;88115;-68
2022/03/04 13:26:52;;;;;;;10.52;7.78;;;;;;;;;;5014130;28;88073;-68
2022/03/04 13:29:19;;;;;;;10.07;7.55;;;;;;;;;;5018199;28;89664;-70
2022/03/04 13:31:45;;;;;;;9.93;7.80;;;;;;;;;;5018343;28;89082;-68
2022/03/04 13:34:25;;;;;;;7.88;6.93;;;;;;;;;;4997864;28;88048;-68
2022/03/04 13:36:52;;;;;;;8.65;6.70;;;;;;;;;;4978207;28;88421;-68
2022/03/04 13:39:18;;;;;;;12.07;7.18;;;;;;;;;;4988016;28;89899;-67
2022/03/04 13:41:48;;;;;;;7.78;6.32;;;;;;;;;;4997748;28;88061;-68
2022/03/04 13:44:15;;;;;;;9.60;7.28;;;;;;;;;;4978245;28;88558;-68
2022/03/04 13:47:01;;;;;;;10.40;7.13;;;;;;;;;;4988109;28;88977;-68
2022/03/04 13:49:43;;;;;;;8.73;7.25;;;;;;;;;;4995586;28;88028;-67
2022/03/04 13:52:09;;;;;;;9.10;6.68;;;;;;;;;;5016238;28;89021;-67
2022/03/04 13:55:10;;;;;;;10.80;7.78;;;;;;;;;;5003083;28;88137;-67
2022/03/04 13:57:38;;;;;;;10.88;7.65;;;;;;;;;;4917862;28;88542;-67
2022/03/04 14:00:11;;;;;;;12.43;8.32;;;;;;;;;;4925983;28;88841;-67
2022/03/04 14:02:38;;;;;;;9.88;8.02;;;;;;;;;;4935895;28;88134;-68
2022/03/04 14:05:05;;;;;;;13.30;9.18;;;;;;;;;;4935147;28;88828;-67
2022/03/04 14:07:42;;;;;;;14.38;8.48;;;;;;;;;;4916004;28;89892;-67
2022/03/04 14:10:09;;;;;;;12.77;9.25;;;;;;;;;;4910728;28;88176;-67
2022/03/04 14:12:35;;;;;;;12.05;9.25;;;;;;;;;;4924141;28;89883;-67
2022/03/04 14:15:02;;;;;;;16.35;8.55;;;;;;;;;;4934018;28;88241;-68
2022/03/04 14:17:28;;;;;;;12.95;8.57;;;;;;;;;;4917148;28;88842;-67
2022/03/04 14:19:55;;;;;;;11.82;9.07;;;;;;;;;;4920784;28;89201;-68
2022/03/04 14:22:21;;;;;;;13.85;10.73;;;;;;;;;;4918506;28;88461;-67